createdAt,value
2019-04-10T00:00:53.448Z,82.80
2019-04-10T00:03:31.967Z,82.40
2019-04-10T00:05:56.306Z,83.30
2019-04-10T00:08:26.565Z,83.00
2019-04-10T00:10:56.800Z,83.80
2019-04-10T00:13:27.610Z,84.20
2019-04-10T00:15:59.620Z,84.20
2019-04-10T00:18:30.037Z,84.10
2019-04-10T00:21:00.869Z,84.10
2019-04-10T00:23:33.159Z,83.70
2019-04-10T00:26:03.622Z,83.50
2019-04-10T00:28:35.896Z,83.40
2019-04-10T00:31:06.013Z,82.80
2019-04-10T00:33:36.735Z,82.70
2019-04-10T00:36:07.943Z,82.90
2019-04-10T00:38:38.060Z,82.60
2019-04-10T00:41:08.084Z,82.70
2019-04-10T00:43:39.946Z,83.80
2019-04-10T00:46:10.329Z,83.30
2019-04-10T00:48:41.789Z,82.90
2019-04-10T00:51:12.047Z,82.70
2019-04-10T00:53:42.138Z,82.60
2019-04-10T00:56:12.481Z,83.20
2019-04-10T00:58:43.629Z,83.60
2019-04-10T01:01:14.349Z,82.80
2019-04-10T01:03:46.674Z,82.90
2019-04-10T01:06:17.213Z,82.60
2019-04-10T01:08:47.287Z,82.50
2019-04-10T01:11:17.296Z,82.40
2019-04-10T01:13:47.497Z,82.70
2019-04-10T01:16:17.950Z,82.00
2019-04-10T01:18:48.036Z,82.20
2019-04-10T01:21:18.131Z,82.60
2019-04-10T01:23:49.080Z,82.80
2019-04-10T01:26:19.255Z,82.60
2019-04-10T01:28:51.249Z,81.90
2019-04-10T01:31:21.432Z,81.90
2019-04-10T01:33:52.753Z,82.10
2019-04-10T01:36:22.858Z,81.60
2019-04-10T01:38:53.771Z,82.00
2019-04-10T01:41:23.955Z,81.90
2019-04-10T01:43:55.288Z,80.70
2019-04-10T01:46:26.355Z,80.90
2019-04-10T01:48:57.521Z,80.30
2019-04-10T01:51:28.750Z,79.30
2019-04-10T01:53:58.758Z,79.60
2019-04-10T01:56:33.155Z,78.40
2019-04-10T01:59:01.375Z,78.70
2019-04-10T02:01:36.769Z,78.70
2019-04-10T02:04:06.847Z,79.20
2019-04-10T02:06:37.810Z,79.10
2019-04-10T02:09:10.942Z,79.40
2019-04-10T02:11:41.881Z,78.90
2019-04-10T02:14:12.134Z,78.00
2019-04-10T02:16:43.197Z,78.40
2019-04-10T02:19:14.277Z,77.90
2019-04-10T02:21:45.497Z,77.30
2019-04-10T02:24:16.629Z,77.50
2019-04-10T02:26:46.770Z,77.70
2019-04-10T02:29:17.655Z,77.90
2019-04-10T02:31:50.545Z,77.50
2019-04-10T02:34:21.230Z,77.70
2019-04-10T02:36:52.850Z,78.00
2019-04-10T02:39:32.386Z,77.00
2019-04-10T02:41:56.275Z,77.20
2019-04-10T02:44:28.402Z,77.10
2019-04-10T02:46:59.689Z,77.10
2019-04-10T02:49:30.067Z,76.30
2019-04-10T02:52:00.082Z,76.30
2019-04-10T02:54:30.187Z,76.00
2019-04-10T02:57:01.024Z,75.60
2019-04-10T02:59:31.281Z,76.60
2019-04-10T03:02:02.340Z,75.70
2019-04-10T03:04:35.073Z,76.50
2019-04-10T03:07:05.398Z,77.00
2019-04-10T03:09:49.713Z,75.70
2019-04-10T03:12:08.535Z,75.30
2019-04-10T03:14:42.938Z,74.00
2019-04-10T03:17:12.231Z,73.40
2019-04-10T03:19:43.545Z,73.40
2019-04-10T03:22:13.642Z,74.40
2019-04-10T03:24:44.393Z,74.80
2019-04-10T03:27:14.585Z,74.00
2019-04-10T03:29:45.028Z,73.30
2019-04-10T03:32:40.667Z,73.70
2019-04-10T03:35:16.772Z,73.80
2019-04-10T03:37:48.642Z,73.90
2019-04-10T03:40:19.552Z,74.40
2019-04-10T03:42:49.786Z,73.00
2019-04-10T03:45:20.258Z,72.40
2019-04-10T03:47:51.416Z,72.30
2019-04-10T03:50:23.662Z,72.90
2019-04-10T03:52:53.841Z,73.80
2019-04-10T03:55:25.063Z,73.30
2019-04-10T03:57:55.307Z,72.50
2019-04-10T04:00:27.805Z,72.50
2019-04-10T04:02:58.229Z,72.20
2019-04-10T04:05:28.806Z,73.10
2019-04-10T04:07:59.314Z,73.00
2019-04-10T04:10:29.449Z,71.90
2019-04-10T04:13:00.211Z,73.10
2019-04-10T04:15:30.649Z,72.50
2019-04-10T04:18:00.636Z,72.70
2019-04-10T04:20:30.773Z,72.80
2019-04-10T04:23:01.397Z,72.20
2019-04-10T04:25:32.496Z,72.30
2019-04-10T04:28:04.634Z,72.80
2019-04-10T04:30:36.021Z,72.30
2019-04-10T04:33:07.238Z,72.00
2019-04-10T04:35:37.257Z,72.20
2019-04-10T04:38:07.321Z,72.90
2019-04-10T04:40:37.763Z,73.60
2019-04-10T04:43:08.910Z,72.60
2019-04-10T04:45:38.997Z,72.60
2019-04-10T04:48:09.844Z,72.50
2019-04-10T04:50:40.083Z,72.70
2019-04-10T04:53:10.744Z,73.40
2019-04-10T04:55:40.861Z,72.40
2019-04-10T04:58:11.777Z,72.40
2019-04-10T05:00:42.925Z,72.80
2019-04-10T05:03:13.317Z,73.00
2019-04-10T05:05:43.392Z,73.50
2019-04-10T05:08:13.529Z,72.50
2019-04-10T05:10:43.522Z,72.70
2019-04-10T05:13:13.885Z,71.60
2019-04-10T05:15:45.155Z,71.30
2019-04-10T05:18:15.203Z,72.00
2019-04-10T05:20:49.976Z,72.10
2019-04-10T05:23:18.049Z,72.00
2019-04-10T05:25:48.178Z,72.00
2019-04-10T05:28:19.001Z,72.30
2019-04-10T05:30:50.499Z,72.10
2019-04-10T05:33:20.744Z,72.20
2019-04-10T05:35:52.665Z,72.40
2019-04-10T05:38:24.983Z,72.40
2019-04-10T05:40:55.257Z,72.20
2019-04-10T05:43:26.065Z,72.40
2019-04-10T05:45:57.171Z,71.80
2019-04-10T05:48:28.634Z,71.60
2019-04-10T05:51:03.002Z,71.80
2019-04-10T05:53:30.377Z,72.00
2019-04-10T05:56:01.750Z,72.10
2019-04-10T05:58:31.980Z,72.20
2019-04-10T06:01:05.353Z,72.70
2019-04-10T06:03:36.567Z,72.00
2019-04-10T06:06:06.775Z,72.10
2019-04-10T06:08:37.312Z,72.20
2019-04-10T06:11:08.613Z,73.10
2019-04-10T06:13:40.904Z,72.70
2019-04-10T06:16:11.835Z,72.90
2019-04-10T06:18:43.062Z,72.00
2019-04-10T06:21:14.765Z,71.80
2019-04-10T06:23:45.009Z,71.70
2019-04-10T06:26:16.438Z,71.70
2019-04-10T06:28:47.001Z,71.90
2019-04-10T06:31:17.085Z,72.30
2019-04-10T06:33:47.138Z,72.40
2019-04-10T06:36:17.539Z,72.90
2019-04-10T06:38:47.774Z,71.80
2019-04-10T06:41:19.218Z,70.90
2019-04-10T06:43:49.794Z,71.10
2019-04-10T06:46:20.171Z,71.00
2019-04-10T06:48:50.317Z,70.70
2019-04-10T06:51:21.684Z,70.80
2019-04-10T06:54:01.802Z,69.90
2019-04-10T06:56:23.687Z,70.10
2019-04-10T06:58:54.079Z,70.10
2019-04-10T07:01:26.107Z,69.30
2019-04-10T07:04:02.126Z,69.30
2019-04-10T07:06:44.653Z,69.50
2019-04-10T07:08:59.319Z,70.30
2019-04-10T07:11:32.166Z,70.00
2019-04-10T07:14:01.774Z,70.20
2019-04-10T07:16:34.025Z,70.00
2019-04-10T07:19:06.946Z,68.40
2019-04-10T07:21:37.097Z,67.90
2019-04-10T07:24:11.004Z,68.00
2019-04-10T07:26:43.687Z,68.50
2019-04-10T07:29:16.410Z,68.80
2019-04-10T07:31:44.678Z,68.60
2019-04-10T07:34:15.100Z,68.50
2019-04-10T07:36:46.597Z,68.00
2019-04-10T07:39:17.332Z,67.90
2019-04-10T07:41:47.516Z,67.40
2019-04-10T07:44:18.598Z,66.20
2019-04-10T07:46:52.927Z,66.10
2019-04-10T07:49:27.457Z,65.30
2019-04-10T07:51:54.930Z,64.50
2019-04-10T07:54:24.945Z,63.40
2019-04-10T07:56:55.736Z,63.70
2019-04-10T07:59:25.744Z,63.30
2019-04-10T08:01:55.976Z,62.90
2019-04-10T08:04:26.856Z,63.20
2019-04-10T08:06:57.044Z,62.90
2019-04-10T08:09:27.390Z,64.20
2019-04-10T08:11:59.858Z,64.70
2019-04-10T08:14:31.464Z,64.50
2019-04-10T08:17:01.693Z,63.70
2019-04-10T08:19:32.804Z,63.10
2019-04-10T08:22:03.670Z,63.10
2019-04-10T08:24:34.429Z,63.60
2019-04-10T08:27:05.347Z,63.10
2019-04-10T08:29:36.444Z,62.20
2019-04-10T08:32:07.540Z,62.00
2019-04-10T08:34:37.898Z,62.20
2019-04-10T08:37:08.150Z,62.80
2019-04-10T08:39:42.996Z,62.40
2019-04-10T08:42:10.663Z,61.90
2019-04-10T08:44:40.769Z,61.30
2019-04-10T08:47:11.105Z,61.50
2019-04-10T08:49:41.217Z,60.80
2019-04-10T08:52:12.249Z,60.60
2019-04-10T08:54:43.091Z,59.70
2019-04-10T08:57:13.719Z,58.90
2019-04-10T08:59:44.549Z,56.80
2019-04-10T09:02:15.898Z,55.50
2019-04-10T09:04:47.527Z,53.70
2019-04-10T09:07:17.902Z,53.20
2019-04-10T09:09:48.039Z,52.60
2019-04-10T09:12:18.106Z,52.70
2019-04-10T09:14:48.109Z,53.10
2019-04-10T09:17:18.152Z,53.40
2019-04-10T09:19:48.227Z,53.30
2019-04-10T09:22:18.268Z,53.60
2019-04-10T09:24:48.873Z,53.20
2019-04-10T09:27:19.281Z,53.10
2019-04-10T09:29:49.658Z,54.00
2019-04-10T09:32:20.130Z,54.50
2019-04-10T09:34:50.284Z,54.70
2019-04-10T09:37:20.340Z,55.20
2019-04-10T09:39:51.959Z,55.90
2019-04-10T09:42:23.546Z,55.10
2019-04-10T09:44:54.841Z,55.70
2019-04-10T09:47:24.989Z,54.70
2019-04-10T09:49:55.570Z,53.70
2019-04-10T09:52:25.854Z,53.60
2019-04-10T09:54:56.028Z,53.60
2019-04-10T09:57:26.658Z,53.50
2019-04-10T09:59:57.998Z,51.30
2019-04-10T10:02:28.093Z,48.70
2019-04-10T10:04:58.191Z,46.10
2019-04-10T10:07:28.452Z,44.60
2019-04-10T10:10:00.766Z,43.90
2019-04-10T10:12:30.622Z,41.80
2019-04-10T10:15:00.718Z,40.80
2019-04-10T10:17:30.888Z,39.50
2019-04-10T10:20:01.797Z,39.30
2019-04-10T10:22:32.125Z,41.10
2019-04-10T10:25:02.922Z,42.60
2019-04-10T10:27:34.304Z,43.90
2019-04-10T10:30:05.246Z,45.80
2019-04-10T10:32:35.249Z,46.50
2019-04-10T10:35:07.160Z,45.40
2019-04-10T10:37:38.709Z,44.50
2019-04-10T10:40:10.165Z,44.20
2019-04-10T10:42:41.422Z,43.30
2019-04-10T10:45:12.447Z,42.60
2019-04-10T10:47:42.589Z,44.10
2019-04-10T10:50:13.108Z,43.90
2019-04-10T10:52:43.835Z,44.50
2019-04-10T10:55:14.055Z,44.70
2019-04-10T10:57:44.275Z,45.60
2019-04-10T11:00:29.434Z,46.30
2019-04-10T11:03:00.211Z,45.90
2019-04-10T11:05:32.001Z,45.70
2019-04-10T11:08:03.155Z,46.50
2019-04-10T11:10:33.931Z,46.00
2019-04-10T11:13:03.948Z,44.40
2019-04-10T11:15:34.138Z,43.70
2019-04-10T11:18:06.308Z,42.40
2019-04-10T11:20:36.566Z,42.70
2019-04-10T11:23:06.625Z,42.80
2019-04-10T11:25:37.750Z,42.60
2019-04-10T11:28:08.041Z,43.90
2019-04-10T11:30:38.350Z,43.50
2019-04-10T11:33:08.579Z,43.00
2019-04-10T11:35:39.652Z,43.40
2019-04-10T11:38:10.951Z,44.10
2019-04-10T11:40:41.424Z,43.70
2019-04-10T11:43:12.472Z,43.80
2019-04-10T11:45:51.266Z,43.00
2019-04-10T11:48:16.354Z,42.80
2019-04-10T11:50:48.424Z,43.40
2019-04-10T11:53:19.109Z,42.30
2019-04-10T11:55:52.989Z,41.80
2019-04-10T11:58:24.378Z,42.20
2019-04-10T12:00:56.439Z,42.80
2019-04-10T12:03:27.017Z,42.80
2019-04-10T12:05:59.574Z,42.50
2019-04-10T12:08:50.377Z,42.20
2019-04-10T12:13:33.173Z,42.30
2019-04-10T12:16:03.294Z,41.80
2019-04-10T12:18:33.322Z,41.70
2019-04-10T12:21:03.506Z,41.40
2019-04-10T12:23:34.654Z,41.60
2019-04-10T12:26:05.019Z,41.40
2019-04-10T12:28:36.099Z,40.80
2019-04-10T12:31:06.554Z,41.40
2019-04-10T12:33:36.579Z,41.10
2019-04-10T12:36:10.558Z,41.00
2019-04-10T12:38:41.565Z,40.60
2019-04-10T12:41:11.965Z,39.50
2019-04-10T12:43:43.261Z,39.30
2019-04-10T12:46:13.326Z,39.30
2019-04-10T12:48:43.863Z,39.70
2019-04-10T12:51:13.990Z,39.60
2019-04-10T12:53:44.037Z,39.50
2019-04-10T12:56:14.174Z,39.30
2019-04-10T12:58:44.694Z,39.70
2019-04-10T13:01:16.322Z,40.80
2019-04-10T13:03:47.353Z,40.10
2019-04-10T13:06:17.971Z,39.90
2019-04-10T13:08:59.148Z,40.60
2019-04-10T13:11:20.515Z,40.70
2019-04-10T13:13:51.330Z,40.50
2019-04-10T13:16:21.871Z,40.50
2019-04-10T13:18:52.356Z,40.50
2019-04-10T13:21:22.606Z,40.40
2019-04-10T13:23:53.028Z,39.50
2019-04-10T13:26:23.937Z,39.50
2019-04-10T13:28:54.167Z,39.30
2019-04-10T13:31:24.238Z,39.20
2019-04-10T13:33:55.073Z,38.90
2019-04-10T13:36:25.255Z,39.20
2019-04-10T13:38:55.263Z,39.00
2019-04-10T13:41:26.152Z,38.50
2019-04-10T13:43:56.279Z,38.60
2019-04-10T13:46:26.848Z,38.70
2019-04-10T13:48:57.641Z,37.80
2019-04-10T13:51:27.783Z,37.40
2019-04-10T13:53:58.524Z,37.80
2019-04-10T13:56:29.390Z,38.10
2019-04-10T13:59:00.344Z,38.10
2019-04-10T14:01:33.546Z,38.40
2019-04-10T14:04:04.929Z,38.90
2019-04-10T14:06:35.999Z,38.30
2019-04-10T14:09:28.864Z,38.20
2019-04-10T14:11:47.351Z,38.20
2019-04-10T14:14:18.286Z,38.40
2019-04-10T14:16:48.872Z,37.70
2019-04-10T14:19:19.072Z,37.30
2019-04-10T14:21:49.509Z,37.70
2019-04-10T14:24:20.011Z,37.70
2019-04-10T14:27:10.302Z,37.40
2019-04-10T14:29:40.776Z,37.30
2019-04-10T14:32:15.359Z,37.30
2019-04-10T14:34:45.484Z,37.50
2019-04-10T14:37:16.834Z,37.20
2019-04-10T14:39:48.087Z,37.60
2019-04-10T14:42:18.330Z,37.80
2019-04-10T14:44:48.679Z,37.50
2019-04-10T14:47:20.312Z,37.50
2019-04-10T14:49:52.634Z,38.10
2019-04-10T14:52:23.277Z,39.00
2019-04-10T14:54:54.401Z,39.10
2019-04-10T14:57:26.601Z,38.80
2019-04-10T14:59:57.897Z,39.20
2019-04-10T15:02:28.095Z,39.20
2019-04-10T15:04:58.137Z,39.60
2019-04-10T15:07:28.970Z,40.00
2019-04-10T15:10:00.094Z,40.20
2019-04-10T15:12:30.263Z,40.40
2019-04-10T15:15:00.339Z,40.40
2019-04-10T15:17:30.830Z,40.80
2019-04-10T15:20:01.126Z,41.40
2019-04-10T15:22:33.569Z,41.00
2019-04-10T15:25:05.391Z,41.30
2019-04-10T15:27:35.614Z,40.50
2019-04-10T15:30:06.228Z,40.50
2019-04-10T15:32:36.325Z,40.60
2019-04-10T15:35:06.600Z,41.00
2019-04-10T15:37:37.445Z,40.80
2019-04-10T15:40:17.690Z,41.40
2019-04-10T15:42:40.589Z,40.50
2019-04-10T15:45:10.838Z,40.90
2019-04-10T15:47:49.261Z,41.10
2019-04-10T15:50:13.698Z,41.10
2019-04-10T15:52:45.086Z,41.40
2019-04-10T15:55:15.530Z,41.90
2019-04-10T15:57:53.029Z,41.90
2019-04-10T16:00:17.696Z,41.70
2019-04-10T16:02:48.912Z,41.50
2019-04-10T16:05:19.535Z,41.30
2019-04-10T16:08:09.953Z,41.60
2019-04-10T16:10:53.004Z,42.20
2019-04-10T16:13:32.287Z,41.90
2019-04-10T16:16:20.688Z,41.40
2019-04-10T16:18:55.367Z,41.60
2019-04-10T16:21:26.805Z,41.70
2019-04-10T16:24:03.243Z,41.60
2019-04-10T16:26:33.595Z,41.90
2019-04-10T16:29:04.050Z,42.10
2019-04-10T16:31:35.481Z,42.30
2019-04-10T16:34:05.835Z,42.40
2019-04-10T16:36:36.019Z,42.50
2019-04-10T16:39:09.146Z,42.80
2019-04-10T16:41:39.579Z,42.90
2019-04-10T16:44:10.928Z,42.40
2019-04-10T16:46:42.502Z,42.00
2019-04-10T16:49:12.786Z,42.20
2019-04-10T16:51:42.926Z,42.40
2019-04-10T16:54:13.062Z,42.50
2019-04-10T16:56:43.194Z,42.60
2019-04-10T16:59:14.214Z,42.80
2019-04-10T17:01:44.882Z,43.10
2019-04-10T17:04:18.905Z,42.70
2019-04-10T17:06:50.474Z,42.60
2019-04-10T17:09:23.422Z,42.80
2019-04-10T17:11:53.807Z,42.90
2019-04-10T17:14:24.118Z,43.00
2019-04-10T17:16:54.299Z,43.00
2019-04-10T17:19:24.652Z,43.00
2019-04-10T17:21:54.889Z,43.00
2019-04-10T17:24:25.127Z,43.20
2019-04-10T17:26:55.821Z,43.70
2019-04-10T17:29:27.143Z,43.50
2019-04-10T17:31:57.576Z,43.60
2019-04-10T17:34:27.823Z,43.70
2019-04-10T17:36:59.085Z,44.10
2019-04-10T17:39:29.348Z,44.40
2019-04-10T17:42:00.002Z,44.30
2019-04-10T17:44:30.308Z,44.80
2019-04-10T17:47:01.702Z,44.80
2019-04-10T17:49:32.136Z,44.70
2019-04-10T17:52:03.969Z,45.00
2019-04-10T17:54:34.605Z,45.30
2019-04-10T17:57:06.531Z,45.80
2019-04-10T17:59:36.694Z,46.20
2019-04-10T18:02:11.672Z,46.60
2019-04-10T18:04:42.178Z,46.80
2019-04-10T18:07:12.581Z,46.90
2019-04-10T18:09:43.058Z,47.30
2019-04-10T18:12:14.247Z,47.60
2019-04-10T18:14:44.475Z,48.10
2019-04-10T18:17:14.594Z,48.70
2019-04-10T18:19:44.778Z,49.00
2019-04-10T18:22:14.883Z,49.60
2019-04-10T18:24:46.123Z,49.50
2019-04-10T18:27:16.382Z,49.80
2019-04-10T18:29:49.632Z,49.90
2019-04-10T18:32:19.780Z,49.90
2019-04-10T18:34:50.061Z,50.00
2019-04-10T18:37:23.733Z,50.40
2019-04-10T18:39:52.018Z,50.50
2019-04-10T18:42:24.120Z,50.70
2019-04-10T18:44:54.080Z,50.90
2019-04-10T18:47:25.000Z,51.30
2019-04-10T18:49:55.955Z,51.60
2019-04-10T18:52:26.206Z,51.90
2019-04-10T18:54:58.422Z,51.70
2019-04-10T18:57:31.284Z,51.70
2019-04-10T19:00:08.235Z,51.70
2019-04-10T19:02:49.664Z,52.00
2019-04-10T19:05:25.668Z,52.40
2019-04-10T19:07:56.691Z,52.90
2019-04-10T19:10:26.911Z,53.20
2019-04-10T19:12:59.506Z,53.40
2019-04-10T19:15:31.118Z,53.60
2019-04-10T19:18:01.652Z,53.60
2019-04-10T19:20:31.743Z,54.70
2019-04-10T19:23:01.856Z,54.00
2019-04-10T19:25:33.110Z,53.90
2019-04-10T19:28:04.470Z,53.80
2019-04-10T19:30:41.470Z,53.80
2019-04-10T19:33:12.144Z,53.80
2019-04-10T19:35:43.423Z,53.90
2019-04-10T19:38:15.000Z,54.40
2019-04-10T19:40:45.831Z,54.60
2019-04-10T19:43:16.175Z,54.60
2019-04-10T19:45:46.239Z,54.60
2019-04-10T19:48:17.252Z,54.60
2019-04-10T19:50:47.781Z,54.50
2019-04-10T19:53:19.312Z,54.60
2019-04-10T19:55:49.438Z,54.90
2019-04-10T19:58:19.678Z,54.70
2019-04-10T20:00:49.959Z,54.80
2019-04-10T20:03:20.045Z,55.00
2019-04-10T20:05:51.236Z,55.20
2019-04-10T20:08:21.721Z,55.10
2019-04-10T20:10:51.982Z,55.00
2019-04-10T20:13:22.734Z,54.80
2019-04-10T20:15:53.085Z,55.00
2019-04-10T20:18:24.421Z,55.00
2019-04-10T20:20:55.477Z,54.90
2019-04-10T20:23:25.841Z,55.10
2019-04-10T20:25:56.941Z,55.30
2019-04-10T20:28:27.295Z,55.60
2019-04-10T20:30:58.096Z,55.40
2019-04-10T20:33:30.479Z,55.80
2019-04-10T20:36:00.977Z,55.20
2019-04-10T20:38:33.419Z,55.00
2019-04-10T20:41:04.661Z,55.10
2019-04-10T20:43:37.249Z,55.70
2019-04-10T20:46:07.596Z,55.70
2019-04-10T20:48:38.858Z,55.60
2019-04-10T20:51:09.267Z,55.70
2019-04-10T20:53:40.178Z,55.90
2019-04-10T20:56:10.572Z,55.90
2019-04-10T20:58:40.799Z,55.90
2019-04-10T21:01:12.391Z,56.00
2019-04-10T21:03:42.626Z,56.80
2019-04-10T21:06:13.358Z,56.30
2019-04-10T21:08:44.560Z,56.30
2019-04-10T21:11:15.842Z,56.20
2019-04-10T21:13:47.001Z,56.40
2019-04-10T21:16:18.026Z,56.30
2019-04-10T21:18:48.268Z,56.40
2019-04-10T21:21:18.674Z,57.50
2019-04-10T21:23:48.843Z,56.80
2019-04-10T21:26:19.849Z,56.90
2019-04-10T21:28:50.026Z,57.20
2019-04-10T21:31:44.931Z,57.10
2019-04-10T21:34:23.181Z,57.30
2019-04-10T21:36:53.412Z,57.40
2019-04-10T21:39:23.551Z,57.80
2019-04-10T21:41:53.613Z,57.70
2019-04-10T21:44:24.662Z,57.80
2019-04-10T21:46:55.070Z,58.40
2019-04-10T21:49:26.176Z,58.40
2019-04-10T21:51:56.382Z,58.40
2019-04-10T21:54:27.041Z,58.50
2019-04-10T21:56:57.665Z,59.20
2019-04-10T21:59:28.906Z,59.80
2019-04-10T22:01:59.393Z,60.50
2019-04-10T22:04:30.767Z,61.30
2019-04-10T22:07:20.305Z,61.60
2019-04-10T22:10:03.540Z,61.70
2019-04-10T22:12:39.603Z,62.20
2019-04-10T22:15:13.096Z,62.20
2019-04-10T22:17:44.559Z,63.50
2019-04-10T22:20:15.225Z,63.50
2019-04-10T22:22:45.425Z,64.00
2019-04-10T22:25:15.801Z,64.10
2019-04-10T22:27:47.769Z,64.30
2019-04-10T22:30:18.966Z,64.50
2019-04-10T22:32:49.317Z,64.20
2019-04-10T22:35:19.530Z,64.40
2019-04-10T22:37:50.343Z,64.70
2019-04-10T22:40:21.638Z,64.80
2019-04-10T22:42:51.809Z,64.60
2019-04-10T22:45:29.053Z,64.30
2019-04-10T22:48:00.697Z,64.60
2019-04-10T22:50:31.155Z,65.20
2019-04-10T22:53:01.520Z,65.50
2019-04-10T22:55:32.021Z,65.70
2019-04-10T22:58:02.571Z,65.20
2019-04-10T23:00:32.958Z,65.30
2019-04-10T23:03:03.372Z,65.50
2019-04-10T23:05:34.792Z,65.60
2019-04-10T23:08:04.878Z,65.60
2019-04-10T23:10:35.303Z,65.90
2019-04-10T23:13:07.116Z,65.90
2019-04-10T23:15:37.727Z,66.10
2019-04-10T23:18:07.883Z,66.30
2019-04-10T23:20:37.914Z,66.80
2019-04-10T23:23:08.565Z,67.10
2019-04-10T23:25:38.645Z,67.00
2019-04-10T23:28:09.509Z,67.20
2019-04-10T23:30:39.642Z,67.60
2019-04-10T23:33:10.028Z,67.70
2019-04-10T23:35:41.225Z,67.60
2019-04-10T23:38:11.427Z,67.60
2019-04-10T23:40:41.530Z,67.30
2019-04-10T23:43:15.443Z,67.40
2019-04-10T23:45:44.023Z,67.60
2019-04-10T23:48:14.915Z,67.80
2019-04-10T23:50:46.164Z,68.40
2019-04-10T23:53:16.257Z,68.00
2019-04-10T23:55:46.404Z,68.10
2019-04-10T23:58:16.445Z,67.60
